Time;durP1;ratioP1;P1;durP2;ratioP2;P2;SDS_P1;SDS_P2;PMS_P1;PMS_P2;Temp;Humidity;BMP_temperature;BMP_pressure;BME280_temperature;BME280_humidity;BME280_pressure;Samples;Min_cycle;Max_cycle;Signal;HPM_P1;HPM_P2
2022/11/01 00:00:50;;;;;;;4.47;3.90;;;11.10;99.90;;;;;;5069115;28;20028;-77
2022/11/01 00:03:22;;;;;;;5.17;3.43;;;11.20;99.90;;;;;;5087318;28;20046;-78
2022/11/01 00:05:48;;;;;;;8.18;3.95;;;11.30;99.90;;;;;;5087443;28;20073;-77
2022/11/01 00:08:16;;;;;;;6.82;4.25;;;11.50;99.90;;;;;;5087564;28;20438;-77
2022/11/01 00:10:54;;;;;;;6.95;4.85;;;11.70;99.90;;;;;;5087368;28;20024;-77
2022/11/01 00:13:19;;;;;;;9.52;4.32;;;11.70;99.90;;;;;;5087405;28;20028;-76
2022/11/01 00:15:45;;;;;;;7.15;4.20;;;;;;;;;;5087307;28;20023;-78
2022/11/01 00:18:11;;;;;;;6.78;3.92;;;11.80;99.90;;;;;;5086812;28;20087;-75
2022/11/01 00:20:37;;;;;;;5.32;3.45;;;11.80;99.90;;;;;;5086914;28;20103;-76
2022/11/01 00:23:02;;;;;;;5.28;4.07;;;11.80;99.90;;;;;;5069195;28;20383;-78
2022/11/01 00:25:28;;;;;;;7.90;4.22;;;12.00;99.90;;;;;;5086978;28;20032;-78
2022/11/01 00:27:54;;;;;;;12.77;5.30;;;11.90;99.90;;;;;;5086682;28;20024;-79
2022/11/01 00:30:19;;;;;;;8.85;4.05;;;11.90;99.90;;;;;;5069117;28;20408;-77
2022/11/01 00:32:45;;;;;;;7.32;4.47;;;11.90;99.90;;;;;;5086145;28;20051;-75
2022/11/01 00:35:10;;;;;;;4.50;4.07;;;11.90;99.90;;;;;;5086891;28;20024;-75
2022/11/01 00:37:36;;;;;;;13.85;3.72;;;12.00;99.90;;;;;;5086669;28;20612;-77
2022/11/01 00:40:02;;;;;;;7.10;4.72;;;12.00;99.90;;;;;;5086721;28;20028;-76
2022/11/01 00:42:27;;;;;;;5.75;4.00;;;12.10;99.90;;;;;;5086967;28;20500;-77
2022/11/01 00:44:53;;;;;;;10.95;3.83;;;12.20;99.90;;;;;;5069216;28;20032;-78
2022/11/01 00:47:19;;;;;;;6.72;4.68;;;12.20;99.90;;;;;;5083222;28;20028;-78
2022/11/01 00:49:44;;;;;;;16.00;5.18;;;12.10;99.90;;;;;;5107117;28;20502;-76
2022/11/01 00:52:10;;;;;;;7.13;3.95;;;12.10;99.90;;;;;;5107089;28;20067;-77
2022/11/01 00:54:36;;;;;;;6.25;3.92;;;12.10;99.90;;;;;;5111378;28;20020;-78
2022/11/01 00:57:01;;;;;;;10.82;5.30;;;12.20;99.90;;;;;;5111462;28;20038;-78
2022/11/01 00:59:27;;;;;;;9.75;4.05;;;12.10;99.90;;;;;;5110500;28;20090;-77
2022/11/01 01:01:53;;;;;;;7.10;4.00;;;12.10;99.90;;;;;;5111181;28;20974;-76
2022/11/01 01:04:18;;;;;;;7.10;4.00;;;12.10;99.90;;;;;;5111286;28;20020;-78
2022/11/01 01:06:44;;;;;;;10.68;5.07;;;12.10;99.90;;;;;;5110730;28;20031;-77
2022/11/01 01:09:10;;;;;;;14.02;3.97;;;12.00;99.90;;;;;;5110963;28;20464;-78
2022/11/01 01:11:36;;;;;;;11.75;5.43;;;12.10;99.90;;;;;;5110977;28;20054;-77
2022/11/01 01:14:02;;;;;;;9.02;4.40;;;12.00;99.90;;;;;;5110712;28;20434;-77
2022/11/01 01:16:27;;;;;;;9.50;4.15;;;12.00;99.90;;;;;;5110701;28;20019;-77
2022/11/01 01:18:53;;;;;;;9.68;4.00;;;12.00;99.90;;;;;;5110282;28;20439;-75
2022/11/01 01:21:19;;;;;;;8.45;4.03;;;12.00;99.90;;;;;;5110259;28;20031;-75
2022/11/01 01:23:47;;;;;;;9.73;3.90;;;12.00;99.90;;;;;;5110772;28;20491;-75
2022/11/01 01:26:13;;;;;;;6.20;2.95;;;12.00;99.90;;;;;;5115907;28;20076;-75
2022/11/01 01:28:39;;;;;;;8.18;2.67;;;12.50;99.90;;;;;;5117075;28;20102;-78
2022/11/01 01:31:22;;;;;;;8.18;3.10;;;13.00;99.90;;;;;;5116165;28;20027;-76
2022/11/01 01:33:51;;;;;;;6.80;2.80;;;13.40;99.90;;;;;;5114527;28;20019;-80
2022/11/01 01:36:16;;;;;;;8.30;3.03;;;13.80;99.90;;;;;;5113740;28;20111;-80
2022/11/01 01:38:42;;;;;;;5.43;2.67;;;13.90;99.90;;;;;;5110758;28;20102;-79
2022/11/01 01:43:56;;;;;;;8.18;3.50;;;13.90;99.90;;;;;;5111485;28;20423;-80
2022/11/01 01:46:27;;;;;;;6.05;2.28;;;13.90;99.90;;;;;;5103528;28;20012;-79
2022/11/01 01:48:57;;;;;;;5.72;2.75;;;14.00;99.90;;;;;;5090334;28;20514;-79
2022/11/01 01:51:25;;;;;;;4.50;1.83;;;13.90;99.90;;;;;;5089453;28;20028;-79
2022/11/01 01:53:53;;;;;;;11.95;1.95;;;14.10;99.90;;;;;;5090029;28;20111;-78
2022/11/01 01:56:33;;;;;;;8.27;1.75;;;14.20;99.90;;;;;;5089567;28;20032;-75
2022/11/01 01:59:07;;;;;;;3.78;1.70;;;14.30;99.90;;;;;;5090132;28;20400;-78
2022/11/01 02:01:37;;;;;;;4.03;2.05;;;14.40;99.90;;;;;;5089449;28;20030;-78
2022/11/01 02:04:10;;;;;;;7.80;1.15;;;14.40;99.90;;;;;;5089296;28;20039;-79
2022/11/01 02:06:39;;;;;;;4.90;1.35;;;14.60;99.90;;;;;;5089843;28;20073;-78
2022/11/01 02:09:09;;;;;;;3.70;1.50;;;14.60;99.90;;;;;;5089652;28;20030;-78
2022/11/01 02:11:35;;;;;;;5.63;1.20;;;14.60;99.90;;;;;;5089413;28;20028;-77
2022/11/01 02:14:01;;;;;;;1.58;1.25;;;14.70;99.90;;;;;;5089458;28;20032;-77
2022/11/01 02:16:49;;;;;;;1.73;1.63;;;14.70;99.90;;;;;;5089149;28;20503;-76
2022/11/01 02:19:33;;;;;;;4.28;1.20;;;14.70;99.90;;;;;;5089674;28;20028;-79
2022/11/01 02:22:17;;;;;;;1.98;1.70;;;14.70;99.90;;;;;;5089250;28;20027;-78
2022/11/01 02:25:09;;;;;;;1.42;1.33;;;14.70;99.90;;;;;;5089376;28;20034;-78
2022/11/01 02:27:56;;;;;;;3.40;1.40;;;14.60;99.90;;;;;;5088980;28;20031;-78
2022/11/01 02:30:22;;;;;;;3.80;1.20;;;14.60;99.90;;;;;;5088938;28;20055;-78
2022/11/01 02:32:51;;;;;;;1.20;1.10;;;14.70;99.90;;;;;;5088794;28;20082;-75
2022/11/01 02:35:54;;;;;;;2.30;1.80;;;14.70;99.90;;;;;;5087357;28;20023;-75
2022/11/01 02:38:38;;;;;;;2.65;1.00;;;14.70;99.90;;;;;;5109299;28;20026;-75
2022/11/01 02:41:08;;;;;;;0.95;0.85;;;14.60;99.90;;;;;;5109071;28;20093;-75
2022/11/01 02:43:47;;;;;;;1.98;0.68;;;14.60;99.90;;;;;;5109005;28;20027;-78
2022/11/01 02:48:59;;;;;;;2.88;0.80;;;14.70;99.90;;;;;;5088762;28;20066;-78
2022/11/01 02:51:26;;;;;;;5.55;1.05;;;14.40;99.90;;;;;;5088613;28;20055;-78
2022/11/01 02:53:52;;;;;;;4.72;1.38;;;14.40;99.90;;;;;;5088953;28;20094;-76
2022/11/01 02:56:18;;;;;;;4.63;1.55;;;14.30;99.90;;;;;;5089098;28;20024;-77
2022/11/01 02:58:47;;;;;;;3.55;1.10;;;14.20;99.90;;;;;;5088370;28;20107;-76
2022/11/01 03:01:17;;;;;;;2.87;1.20;;;14.10;99.90;;;;;;5088666;28;20024;-78
2022/11/01 03:03:46;;;;;;;2.33;1.42;;;14.10;99.90;;;;;;5087950;28;20266;-76
2022/11/01 03:06:23;;;;;;;1.35;0.90;;;14.10;99.90;;;;;;5088432;28;20036;-76
2022/11/01 03:08:58;;;;;;;1.15;1.05;;;14.20;99.90;;;;;;5088244;28;20508;-78
2022/11/01 03:11:32;;;;;;;4.68;1.02;;;14.10;99.90;;;;;;5088383;28;20465;-78
2022/11/01 03:14:13;;;;;;;1.42;0.80;;;14.00;99.90;;;;;;5088162;28;20024;-77
2022/11/01 03:17:12;;;;;;;3.22;1.13;;;14.10;99.90;;;;;;5087099;28;20270;-79
2022/11/01 03:19:50;;;;;;;;;;;14.20;99.90;;;;;;5088907;28;20031;-77
2022/11/01 03:22:18;;;;;;;0.85;0.85;;;14.20;99.90;;;;;;5087797;28;20371;-75
2022/11/01 03:24:51;;;;;;;1.23;0.98;;;14.00;99.90;;;;;;5088414;28;20451;-75
2022/11/01 03:27:19;;;;;;;2.45;0.90;;;14.00;99.90;;;;;;5087754;28;20584;-77
2022/11/01 03:29:55;;;;;;;2.60;1.00;;;13.90;99.90;;;;;;5088157;28;20032;-77
2022/11/01 03:32:27;;;;;;;5.28;1.08;;;13.80;99.90;;;;;;5087511;28;20055;-78
2022/11/01 03:34:52;;;;;;;0.50;0.50;;;13.70;99.90;;;;;;5087598;28;20164;-76
2022/11/01 03:37:19;;;;;;;10.20;2.42;;;13.70;99.90;;;;;;5087989;28;20207;-76
2022/11/01 03:39:48;;;;;;;6.85;1.92;;;13.70;99.90;;;;;;5069774;28;20362;-78
2022/11/01 03:42:17;;;;;;;2.47;1.33;;;13.70;99.90;;;;;;5087522;28;20494;-77
2022/11/01 03:44:48;;;;;;;5.20;1.17;;;13.60;99.90;;;;;;5087225;28;20024;-77
2022/11/01 03:47:14;;;;;;;1.38;1.25;;;13.60;99.90;;;;;;5083405;28;20199;-75
2022/11/01 03:49:40;;;;;;;2.97;0.93;;;13.60;99.90;;;;;;5108235;28;20106;-77
2022/11/01 03:52:05;;;;;;;3.88;1.65;;;13.50;99.90;;;;;;5107597;28;20531;-79
2022/11/01 03:54:31;;;;;;;2.03;1.83;;;13.50;99.90;;;;;;5089663;28;20524;-78
2022/11/01 03:56:57;;;;;;;1.38;1.27;;;13.40;99.90;;;;;;5089764;28;20521;-77
2022/11/01 03:59:22;;;;;;;4.78;3.45;;;13.50;99.90;;;;;;5107607;28;20019;-76
2022/11/01 04:01:48;;;;;;;3.13;1.45;;;13.50;99.90;;;;;;5088856;28;20019;-77
2022/11/01 04:04:14;;;;;;;1.27;0.70;;;13.40;99.90;;;;;;5107351;28;20081;-77
2022/11/01 04:06:40;;;;;;;1.40;0.68;;;13.50;99.90;;;;;;5108087;28;20019;-77
2022/11/01 04:09:06;;;;;;;0.50;0.50;;;;;;;;;;5107979;28;20055;-76
2022/11/01 04:11:32;;;;;;;9.50;0.70;;;13.70;99.90;;;;;;5107694;28;20070;-75
2022/11/01 04:22:31;;;;;;;6.05;0.80;;;13.80;99.90;;;;;;5089280;28;20050;-76
2022/11/01 04:24:59;;;;;;;0.30;0.30;;;13.70;99.90;;;;;;5107747;28;20028;-77
2022/11/01 04:27:28;;;;;;;2.95;0.50;;;13.70;99.90;;;;;;5107039;28;20035;-76
2022/11/01 04:29:56;;;;;;;5.28;0.60;;;13.70;99.90;;;;;;5107667;28;20050;-76
2022/11/01 04:32:22;;;;;;;0.50;0.50;;;13.70;99.90;;;;;;5088148;28;20097;-76
2022/11/01 04:34:50;;;;;;;0.32;0.32;;;13.70;99.90;;;;;;5106795;28;20480;-76
2022/11/01 04:37:19;;;;;;;1.10;0.70;;;13.60;99.90;;;;;;5107271;28;20390;-75
2022/11/01 04:39:44;;;;;;;0.40;0.40;;;13.60;99.90;;;;;;5107779;28;20049;-75
2022/11/01 04:42:31;;;;;;;0.32;0.30;;;13.60;99.90;;;;;;5107206;28;20306;-77
2022/11/01 04:45:05;;;;;;;1.63;0.90;;;13.60;99.90;;;;;;5107067;28;20116;-76
2022/11/01 04:47:34;;;;;;;0.32;0.32;;;13.70;99.90;;;;;;5089995;28;20020;-77
2022/11/01 04:50:06;;;;;;;0.63;0.40;;;13.70;99.90;;;;;;5086700;28;20053;-77
2022/11/01 04:52:34;;;;;;;0.68;0.38;;;13.60;99.90;;;;;;5086846;28;20055;-76
2022/11/01 04:55:06;;;;;;;0.90;0.30;;;13.50;99.90;;;;;;5087058;28;20487;-76
2022/11/01 04:57:38;;;;;;;0.32;0.32;;;13.50;99.90;;;;;;5086672;28;20477;-77
2022/11/01 05:00:10;;;;;;;0.50;0.50;;;13.50;99.90;;;;;;5086904;28;20294;-76
2022/11/01 05:02:36;;;;;;;0.35;0.13;;;13.50;99.90;;;;;;5086232;28;20027;-77
2022/11/01 05:05:04;;;;;;;0.25;0.25;;;13.40;99.90;;;;;;5086599;28;20016;-76
2022/11/01 05:07:29;;;;;;;0.60;0.60;;;13.40;99.90;;;;;;5068510;28;20414;-76
2022/11/01 05:09:55;;;;;;;2.08;0.43;;;13.40;99.90;;;;;;5086718;28;20376;-76
2022/11/01 05:12:21;;;;;;;0.30;0.30;;;13.40;99.90;;;;;;5086532;28;20036;-75
2022/11/01 05:14:46;;;;;;;0.40;0.20;;;13.30;99.90;;;;;;5086973;28;20024;-76
2022/11/01 05:17:12;;;;;;;2.15;0.20;;;13.20;99.90;;;;;;5086274;28;20567;-77
2022/11/01 05:19:38;;;;;;;0.20;0.20;;;11.70;99.90;;;;;;5086358;28;20027;-76
2022/11/01 05:22:04;;;;;;;3.28;0.20;;;13.20;99.90;;;;;;5068492;28;20031;-76
2022/11/01 05:24:29;;;;;;;2.17;0.20;;;13.10;99.90;;;;;;5086823;28;20504;-76
2022/11/01 05:26:55;;;;;;;0.32;0.32;;;13.10;99.90;;;;;;5086262;28;20385;-76
2022/11/01 05:29:21;;;;;;;0.70;0.32;;;13.00;99.90;;;;;;5086666;28;20024;-76
2022/11/01 05:31:46;;;;;;;1.42;0.77;;;13.00;99.90;;;;;;5085952;28;20048;-76
2022/11/01 05:34:12;;;;;;;0.35;0.20;;;12.90;99.90;;;;;;5086728;28;20031;-77
2022/11/01 05:36:38;;;;;;;0.32;0.32;;;12.90;99.90;;;;;;5068095;28;20081;-76
2022/11/01 05:39:04;;;;;;;0.20;0.20;;;12.80;99.90;;;;;;5086765;28;20149;-76
2022/11/01 05:41:32;;;;;;;0.10;0.10;;;12.80;99.90;;;;;;5090206;28;20032;-75
2022/11/01 05:43:58;;;;;;;1.15;0.28;;;12.90;99.90;;;;;;5071848;28;20488;-75
2022/11/01 05:46:23;;;;;;;1.52;0.32;;;12.90;99.90;;;;;;5097189;28;20034;-75
2022/11/01 05:48:49;;;;;;;0.17;0.17;;;12.80;99.90;;;;;;5110139;28;20168;-76
2022/11/01 05:51:15;;;;;;;0.65;0.28;;;12.80;99.90;;;;;;5109861;28;20028;-75
2022/11/01 05:53:40;;;;;;;0.32;0.32;;;12.80;99.90;;;;;;5110005;28;20034;-77
2022/11/01 05:56:06;;;;;;;0.10;0.10;;;12.90;99.90;;;;;;5109831;28;20490;-77
2022/11/01 05:58:32;;;;;;;0.25;0.20;;;12.90;99.90;;;;;;5110010;28;20540;-77
2022/11/01 06:00:59;;;;;;;0.40;0.20;;;12.90;99.90;;;;;;5110112;28;20023;-76
2022/11/01 06:03:25;;;;;;;0.13;0.13;;;13.00;99.90;;;;;;5110042;28;20024;-77
2022/11/01 06:05:51;;;;;;;0.40;0.35;;;13.00;99.90;;;;;;5109688;28;20020;-77
2022/11/01 06:08:17;;;;;;;0.22;0.15;;;13.10;99.90;;;;;;5109528;28;20020;-77
2022/11/01 06:10:43;;;;;;;0.00;0.00;;;13.20;99.90;;;;;;5091663;28;20422;-76
2022/11/01 06:13:08;;;;;;;0.40;0.22;;;13.20;99.90;;;;;;5091486;28;20032;-75
2022/11/01 06:15:34;;;;;;;0.73;0.30;;;13.20;99.90;;;;;;5109783;28;20035;-77
2022/11/01 06:18:01;;;;;;;0.32;0.32;;;13.30;99.90;;;;;;5109686;28;20158;-76
2022/11/01 06:20:28;;;;;;;0.20;0.15;;;13.20;99.90;;;;;;5109886;28;20023;-78
2022/11/01 06:22:54;;;;;;;0.73;0.20;;;13.20;99.90;;;;;;5109475;28;20054;-75
2022/11/01 06:25:20;;;;;;;0.13;0.13;;;13.20;99.90;;;;;;5109500;28;20488;-76
2022/11/01 06:27:46;;;;;;;0.10;0.10;;;13.20;99.90;;;;;;5109593;28;20050;-78
2022/11/01 06:30:12;;;;;;;0.03;0.03;;;13.10;99.90;;;;;;5109569;28;20429;-79
2022/11/01 06:32:38;;;;;;;0.80;0.30;;;13.10;99.90;;;;;;5109321;28;20400;-78
2022/11/01 06:35:04;;;;;;;0.10;0.10;;;13.20;99.90;;;;;;5109343;28;20016;-75
2022/11/01 06:37:29;;;;;;;0.30;0.30;;;13.20;99.90;;;;;;5109509;28;20049;-77
2022/11/01 06:39:55;;;;;;;2.63;0.10;;;13.20;99.90;;;;;;5109945;28;20519;-78
2022/11/01 06:42:21;;;;;;;0.13;0.13;;;13.10;99.90;;;;;;5109026;28;20036;-76
2022/11/01 06:44:46;;;;;;;0.20;0.10;;;13.10;99.90;;;;;;5108748;28;20035;-77
2022/11/01 06:47:12;;;;;;;0.50;0.30;;;13.00;99.90;;;;;;5094585;28;20120;-78
2022/11/01 06:49:38;;;;;;;0.15;0.15;;;12.90;99.90;;;;;;5088720;28;20074;-77
2022/11/01 06:52:04;;;;;;;0.10;0.10;;;12.90;99.90;;;;;;5088552;28;20031;-77
2022/11/01 06:54:30;;;;;;;0.68;0.10;;;12.90;99.90;;;;;;5088633;28;20103;-76
2022/11/01 06:56:56;;;;;;;0.50;0.50;;;12.90;99.90;;;;;;5088528;28;20093;-76
2022/11/01 06:59:22;;;;;;;0.20;0.20;;;12.90;99.90;;;;;;5088349;28;20469;-75
2022/11/01 07:01:48;;;;;;;0.20;0.20;;;12.80;99.90;;;;;;5087936;28;20110;-76
2022/11/01 07:04:14;;;;;;;0.15;0.15;;;12.80;99.90;;;;;;5087903;28;20396;-76
2022/11/01 07:06:40;;;;;;;2.78;0.13;;;12.80;99.90;;;;;;5088196;28;20419;-78
2022/11/01 07:09:06;;;;;;;0.57;0.47;;;12.80;99.90;;;;;;5088402;28;20490;-75
2022/11/01 07:11:32;;;;;;;0.20;0.20;;;12.80;99.90;;;;;;5087761;28;20639;-76
2022/11/01 07:13:58;;;;;;;0.28;0.15;;;12.80;99.90;;;;;;5105977;28;20342;-77
2022/11/01 07:16:24;;;;;;;0.30;0.20;;;12.90;99.90;;;;;;5088260;28;20339;-76
2022/11/01 07:18:50;;;;;;;0.90;0.25;;;12.90;99.90;;;;;;5106492;28;20463;-74
2022/11/01 07:21:16;;;;;;;0.40;0.20;;;13.00;99.90;;;;;;5087979;28;20532;-76
2022/11/01 07:23:42;;;;;;;0.20;0.17;;;13.20;99.90;;;;;;5107107;28;20019;-76
2022/11/01 07:26:07;;;;;;;0.40;0.40;;;13.30;99.90;;;;;;5106715;28;20024;-76
2022/11/01 07:28:34;;;;;;;0.55;0.50;;;13.50;99.90;;;;;;5106958;28;20031;-76
2022/11/01 07:30:59;;;;;;;0.52;0.52;;;13.50;99.90;;;;;;5088688;28;20030;-75
2022/11/01 07:33:25;;;;;;;0.10;0.10;;;13.60;99.90;;;;;;5106968;28;20051;-75
2022/11/01 07:35:52;;;;;;;0.65;0.30;;;13.80;99.90;;;;;;5107742;28;20027;-75
2022/11/01 07:38:18;;;;;;;1.00;0.68;;;13.90;99.90;;;;;;5107642;28;20024;-76
2022/11/01 07:40:48;;;;;;;0.20;0.20;;;14.00;99.90;;;;;;5107660;28;20034;-77
2022/11/01 07:43:16;;;;;;;0.65;0.20;;;14.10;99.90;;;;;;5107279;28;20040;-79
2022/11/01 07:45:42;;;;;;;1.75;0.10;;;14.30;99.90;;;;;;5106198;28;20020;-76
2022/11/01 07:48:11;;;;;;;0.30;0.30;;;14.40;99.90;;;;;;5087275;28;20286;-77
2022/11/01 07:50:38;;;;;;;0.20;0.20;;;14.50;99.90;;;;;;5085428;28;20112;-76
2022/11/01 07:53:07;;;;;;;3.90;0.25;;;14.50;99.90;;;;;;5086431;28;20035;-76
2022/11/01 07:55:34;;;;;;;0.50;0.30;;;14.60;99.90;;;;;;5087058;28;20028;-76
2022/11/01 07:57:59;;;;;;;0.13;0.13;;;14.60;99.90;;;;;;5087015;28;20031;-78
2022/11/01 08:00:26;;;;;;;0.08;0.03;;;14.60;99.90;;;;;;5086938;28;20388;-77
2022/11/01 08:02:51;;;;;;;0.10;0.10;;;14.60;99.90;;;;;;5086676;28;20024;-77
2022/11/01 08:05:17;;;;;;;0.20;0.20;;;14.60;99.90;;;;;;5087570;28;20039;-79
2022/11/01 08:07:43;;;;;;;0.35;0.20;;;14.60;99.90;;;;;;5087005;28;20093;-77
2022/11/01 08:10:10;;;;;;;0.20;0.20;;;14.60;99.90;;;;;;5087279;28;20113;-76
2022/11/01 08:12:36;;;;;;;0.30;0.30;;;14.60;99.90;;;;;;5086488;28;20040;-76
2022/11/01 08:15:03;;;;;;;0.15;0.15;;;14.60;99.90;;;;;;5086617;28;20182;-77
2022/11/01 08:17:29;;;;;;;3.17;0.32;;;14.60;99.90;;;;;;5086555;28;20024;-77
2022/11/01 08:19:55;;;;;;;0.50;0.50;;;14.60;99.90;;;;;;5086828;28;20021;-76
2022/11/01 08:22:20;;;;;;;0.63;0.57;;;14.70;99.90;;;;;;5086517;28;20077;-77
2022/11/01 08:24:46;;;;;;;0.35;0.35;;;14.80;99.90;;;;;;5086481;28;20412;-78
2022/11/01 08:27:12;;;;;;;1.80;0.47;;;14.80;99.90;;;;;;5086868;28;20449;-77
2022/11/01 08:29:37;;;;;;;0.80;0.40;;;14.90;99.90;;;;;;5086076;28;20031;-81
2022/11/01 08:32:03;;;;;;;1.13;0.35;;;15.00;99.90;;;;;;5085804;28;20044;-77
2022/11/01 08:34:31;;;;;;;0.13;0.10;;;15.20;99.90;;;;;;5067805;28;20036;-77
2022/11/01 08:36:58;;;;;;;0.20;0.20;;;15.40;99.90;;;;;;5086500;28;20024;-79
2022/11/01 08:39:24;;;;;;;0.70;0.32;;;15.60;99.90;;;;;;5086088;28;20028;-78
2022/11/01 08:41:50;;;;;;;0.70;0.55;;;15.90;99.90;;;;;;5086053;28;20024;-78
2022/11/01 08:44:18;;;;;;;0.68;0.30;;;16.20;99.90;;;;;;5068041;28;20046;-79
2022/11/01 08:46:44;;;;;;;0.30;0.30;;;16.40;99.90;;;;;;5095912;28;20099;-77
2022/11/01 08:49:10;;;;;;;0.50;0.50;;;16.70;99.90;;;;;;5106400;28;20149;-78
2022/11/01 08:51:37;;;;;;;0.28;0.22;;;17.10;99.90;;;;;;5106166;28;20054;-79
2022/11/01 08:54:04;;;;;;;2.20;0.63;;;17.40;99.90;;;;;;5106233;28;20032;-77
2022/11/01 08:56:30;;;;;;;0.40;0.30;;;17.60;99.90;;;;;;5083850;28;20039;-77
2022/11/01 08:58:56;;;;;;;0.10;0.10;;;17.90;99.90;;;;;;5086613;28;20028;-77
2022/11/01 09:01:23;;;;;;;0.20;0.10;;;17.90;99.90;;;;;;5070179;28;20024;-78
2022/11/01 09:03:49;;;;;;;0.30;0.30;;;17.80;99.90;;;;;;5085823;28;20503;-80
2022/11/01 09:06:15;;;;;;;0.57;0.40;;;17.80;99.90;;;;;;5085916;28;20029;-76
2022/11/01 09:08:41;;;;;;;0.20;0.20;;;17.90;99.90;;;;;;5067608;28;20455;-78
2022/11/01 09:11:06;;;;;;;0.17;0.17;;;17.80;99.90;;;;;;5085523;28;20051;-78
2022/11/01 09:13:33;;;;;;;1.00;0.32;;;17.80;99.90;;;;;;5085659;28;20043;-79
2022/11/01 09:15:59;;;;;;;3.40;0.40;;;17.40;99.90;;;;;;5071413;28;20070;-78
2022/11/01 09:18:24;;;;;;;0.45;0.22;;;17.40;99.90;;;;;;5089668;28;20054;-79
2022/11/01 09:20:54;;;;;;;0.30;0.30;;;17.30;99.90;;;;;;5071081;28;20058;-79
2022/11/01 09:23:20;;;;;;;0.28;0.28;;;17.30;99.90;;;;;;5071787;28;20027;-78
2022/11/01 09:25:46;;;;;;;2.75;0.63;;;17.10;99.90;;;;;;5071420;28;20531;-78
2022/11/01 09:28:12;;;;;;;0.20;0.20;;;17.10;99.90;;;;;;5089488;28;20035;-78
2022/11/01 09:30:38;;;;;;;0.50;0.30;;;17.10;99.90;;;;;;5089680;28;20154;-79
2022/11/01 09:33:05;;;;;;;4.20;0.80;;;17.10;99.90;;;;;;5089092;28;20150;-79
2022/11/01 09:35:31;;;;;;;0.38;0.10;;;17.20;99.90;;;;;;5089388;28;20020;-79
2022/11/01 09:37:58;;;;;;;1.25;0.40;;;17.20;99.90;;;;;;5089754;28;20024;-79
2022/11/01 09:40:29;;;;;;;0.60;0.50;;;17.30;99.90;;;;;;5070721;28;20038;-79
2022/11/01 09:42:56;;;;;;;0.60;0.47;;;17.40;99.90;;;;;;5091483;28;20119;-79
2022/11/01 09:45:25;;;;;;;1.48;0.73;;;17.40;99.90;;;;;;5095234;28;20054;-80
2022/11/01 09:47:53;;;;;;;1.27;1.00;;;17.50;99.90;;;;;;5069167;28;20024;-79
2022/11/01 09:50:45;;;;;;;4.45;0.60;;;17.50;99.90;;;;;;5069761;28;20028;-78
2022/11/01 09:53:26;;;;;;;0.55;0.52;;;17.40;99.90;;;;;;5083567;28;20048;-78
2022/11/01 09:55:55;;;;;;;2.65;0.47;;;17.30;99.90;;;;;;5087455;28;20024;-79
2022/11/01 09:58:32;;;;;;;4.30;0.80;;;17.40;99.90;;;;;;5089891;28;20103;-75
2022/11/01 10:01:40;;;;;;;1.08;0.77;;;17.50;99.90;;;;;;5088342;28;20362;-77
2022/11/01 10:04:08;;;;;;;1.60;0.40;;;17.60;99.90;;;;;;5088799;28;20476;-77
2022/11/01 10:06:49;;;;;;;0.30;0.30;;;17.60;99.90;;;;;;5089092;28;20024;-77
2022/11/01 10:09:28;;;;;;;1.13;0.30;;;17.40;99.90;;;;;;5089351;28;20024;-78
2022/11/01 10:12:42;;;;;;;0.22;0.22;;;17.10;99.90;;;;;;5089099;28;20451;-78
2022/11/01 10:15:23;;;;;;;1.67;0.80;;;17.00;99.90;;;;;;5057767;28;20098;-79
2022/11/01 10:17:51;;;;;;;1.73;0.38;;;16.90;99.90;;;;;;5089113;28;20277;-78
2022/11/01 10:20:22;;;;;;;0.32;0.32;;;16.90;99.90;;;;;;5089271;28;20036;-77
2022/11/01 10:22:49;;;;;;;0.40;0.40;;;16.80;99.90;;;;;;5088842;28;20020;-76
2022/11/01 10:25:18;;;;;;;0.93;0.47;;;16.60;99.90;;;;;;5071271;28;20478;-77
2022/11/01 10:27:52;;;;;;;3.10;0.73;;;16.50;99.90;;;;;;5071601;28;20617;-78
2022/11/01 10:30:19;;;;;;;6.63;1.08;;;16.40;99.90;;;;;;5088770;28;20489;-78
2022/11/01 10:32:46;;;;;;;0.98;0.55;;;16.30;99.90;;;;;;5070107;28;20052;-78
2022/11/01 10:35:20;;;;;;;0.98;0.70;;;16.40;99.90;;;;;;5088779;28;20039;-78
2022/11/01 10:38:01;;;;;;;2.65;0.52;;;16.50;99.90;;;;;;5070331;28;20038;-80
2022/11/01 10:40:33;;;;;;;0.47;0.47;;;16.60;99.90;;;;;;5071577;28;20027;-79
2022/11/01 10:43:00;;;;;;;3.17;0.88;;;16.80;99.90;;;;;;5090056;28;20088;-79
2022/11/01 10:45:26;;;;;;;3.10;0.90;;;16.80;99.90;;;;;;5095555;28;20016;-79
2022/11/01 10:47:56;;;;;;;0.70;0.55;;;16.70;99.90;;;;;;5110111;28;20059;-79
2022/11/01 10:50:24;;;;;;;3.28;0.73;;;16.80;99.90;;;;;;5114458;28;20361;-79
2022/11/01 10:53:01;;;;;;;0.85;0.47;;;17.00;99.90;;;;;;5113235;28;20047;-78
2022/11/01 10:55:52;;;;;;;8.95;0.60;;;17.10;99.90;;;;;;5110747;28;20476;-79
2022/11/01 10:58:32;;;;;;;1.38;0.70;;;16.90;99.90;;;;;;5090512;28;20180;-79
2022/11/01 11:01:04;;;;;;;1.05;0.68;;;17.10;99.90;;;;;;5113492;28;20455;-79
2022/11/01 11:03:30;;;;;;;1.13;1.05;;;17.20;99.90;;;;;;5118623;28;20019;-79
2022/11/01 11:05:59;;;;;;;2.97;0.85;;;17.30;99.90;;;;;;5095223;28;20035;-76
2022/11/01 11:08:25;;;;;;;1.98;0.82;;;17.30;99.90;;;;;;5109652;28;20023;-75
2022/11/01 11:10:51;;;;;;;1.40;0.43;;;17.30;99.90;;;;;;5108979;28;20111;-79
2022/11/01 11:13:22;;;;;;;3.88;1.17;;;17.10;99.90;;;;;;5096260;28;20035;-78
2022/11/01 11:15:52;;;;;;;0.80;0.47;;;17.00;99.90;;;;;;5098535;28;20019;-79
2022/11/01 11:18:42;;;;;;;4.60;0.85;;;16.90;99.90;;;;;;5073878;28;20024;-79
2022/11/01 11:21:11;;;;;;;2.80;0.63;;;17.00;99.90;;;;;;5088145;28;20020;-79
2022/11/01 11:23:44;;;;;;;;;;;17.10;99.90;;;;;;5088816;28;20055;-79
2022/11/01 11:26:16;;;;;;;0.57;0.57;;;17.10;99.90;;;;;;5069988;28;19908;-79
2022/11/01 11:28:47;;;;;;;0.70;0.70;;;17.20;99.90;;;;;;5090816;28;20239;-80
2022/11/01 11:31:42;;;;;;;0.50;0.40;;;17.50;99.90;;;;;;5108071;28;20020;-79
2022/11/01 11:34:23;;;;;;;1.65;0.40;;;17.60;99.90;;;;;;5092367;28;20071;-80
2022/11/01 11:36:51;;;;;;;1.05;0.75;;;17.60;99.90;;;;;;5093517;28;20501;-77
2022/11/01 11:39:24;;;;;;;2.60;0.50;;;17.60;99.90;;;;;;5088977;28;20032;-76
2022/11/01 11:41:49;;;;;;;1.15;0.30;;;17.60;99.90;;;;;;5069936;28;20024;-79
2022/11/01 11:44:54;;;;;;;3.65;0.70;;;17.70;99.90;;;;;;5088623;28;20028;-79
2022/11/01 11:47:26;;;;;;;4.70;0.50;;;17.50;99.90;;;;;;4999936;28;20021;-80
2022/11/01 11:49:55;;;;;;;0.40;0.40;;;17.60;99.90;;;;;;5068940;28;20301;-77
2022/11/01 11:52:30;;;;;;;2.47;0.80;;;17.90;99.90;;;;;;5087017;28;20484;-77
2022/11/01 11:54:55;;;;;;;4.88;0.90;;;17.80;99.90;;;;;;5087144;28;20116;-76
2022/11/01 11:57:28;;;;;;;0.47;0.47;;;17.90;99.90;;;;;;5068848;28;20115;-76
2022/11/01 12:00:00;;;;;;;4.05;0.98;;;18.00;99.90;;;;;;5088144;28;20024;-76
2022/11/01 12:02:37;;;;;;;1.40;0.50;;;18.10;99.90;;;;;;5086596;28;20035;-78
2022/11/01 12:05:10;;;;;;;0.32;0.32;;;18.10;99.90;;;;;;5087341;28;20027;-76
2022/11/01 12:07:47;;;;;;;4.25;0.45;;;17.90;99.90;;;;;;5087019;28;20127;-77
2022/11/01 12:10:33;;;;;;;1.33;0.52;;;17.60;99.90;;;;;;5068284;28;20185;-77
2022/11/01 12:13:00;;;;;;;3.50;1.00;;;17.40;99.90;;;;;;5085577;28;20039;-77
2022/11/01 12:15:28;;;;;;;0.45;0.45;;;17.30;99.90;;;;;;5086643;28;20496;-77
2022/11/01 12:17:55;;;;;;;0.70;0.60;;;17.10;99.90;;;;;;5086778;28;20180;-78
2022/11/01 12:20:23;;;;;;;1.05;0.82;;;17.10;99.90;;;;;;5086686;28;20027;-77
2022/11/01 12:23:24;;;;;;;0.77;0.60;;;18.90;99.90;;;;;;5086907;28;20024;-77
2022/11/01 12:25:50;;;;;;;4.93;0.90;;;16.70;99.90;;;;;;5063782;28;20024;-78
2022/11/01 12:28:30;;;;;;;1.25;1.23;;;16.80;99.90;;;;;;5087169;28;20096;-79
2022/11/01 12:31:11;;;;;;;0.52;0.52;;;16.80;99.90;;;;;;5068573;28;20400;-79
2022/11/01 12:33:43;;;;;;;2.42;1.02;;;16.90;99.90;;;;;;5068428;28;20522;-79
2022/11/01 12:36:10;;;;;;;3.15;0.98;;;17.50;99.90;;;;;;5086817;28;20016;-79
2022/11/01 12:39:02;;;;;;;4.22;0.47;;;18.00;99.90;;;;;;5068395;28;20140;-79
2022/11/01 12:41:39;;;;;;;4.95;0.85;;;18.40;99.90;;;;;;5068468;28;20054;-79
2022/11/01 12:44:30;;;;;;;3.47;0.68;;;18.70;99.90;;;;;;5088811;28;20024;-80
2022/11/01 12:47:15;;;;;;;0.45;0.45;;;18.90;99.90;;;;;;5098521;28;20024;-79
2022/11/01 12:49:54;;;;;;;5.30;0.90;;;19.40;99.90;;;;;;5092592;28;20015;-79
2022/11/01 12:52:52;;;;;;;4.55;0.50;;;19.40;99.90;;;;;;5092697;28;20257;-78
2022/11/01 12:55:30;;;;;;;4.25;1.02;;;19.20;99.90;;;;;;5072331;28;20032;-79
2022/11/01 12:57:55;;;;;;;6.22;1.08;;;19.50;99.90;;;;;;5112217;28;20020;-80
2022/11/01 13:00:25;;;;;;;0.40;0.40;;;19.50;99.90;;;;;;5110916;28;20024;-79
2022/11/01 13:03:11;;;;;;;1.52;0.55;;;19.60;99.90;;;;;;5092046;28;20031;-79
2022/11/01 13:05:57;;;;;;;2.22;0.40;;;20.40;99.90;;;;;;5110910;28;20023;-79
2022/11/01 13:08:46;;;;;;;0.75;0.75;;;19.70;99.90;;;;;;5041593;28;20977;-79
2022/11/01 13:11:43;;;;;;;5.75;0.75;;;19.10;99.90;;;;;;5111415;28;20088;-80
2022/11/01 13:14:21;;;;;;;5.57;0.60;;;19.20;99.90;;;;;;5110382;28;20492;-79
2022/11/01 13:16:50;;;;;;;2.92;0.65;;;19.30;99.90;;;;;;5093314;28;20028;-80